Huffman, Indiana
Current Conditions -  °F | °C
As of 8:35 AM on Friday 19 Dec 2014 (Local Time) from KHNB Reporting Station
Clear Clear  
Wind Chill: 21°   Ceiling: Unl
Heat Index: 28°   Visibility: 7mi
Dew Point: 21°   Wind: 7mph
Humidity: 74%   Direction: 30°NNE
Pressure: 30.33"   Gusts: NA
Location:  38.0072°N, 86.7931°W
Report Text: KHNB 191435Z AUTO 03006KT 7SM CLR M02/M06 A3033 RMK AO1
Loading
Personal Weather Stations






























Interactive Weather Map New forecast layout! Learn more

10-Day Weather Forecast

Advertisements
Track Severe Weather on mobile